createdAt,value
2018-08-19T00:01:06.305Z,12.57
2018-08-19T00:03:34.990Z,11.73
2018-08-19T00:06:03.154Z,14.73
2018-08-19T00:08:31.269Z,12.53
2018-08-19T00:11:02.947Z,11.13
2018-08-19T00:13:31.038Z,12.23
2018-08-19T00:15:59.165Z,11.03
2018-08-19T00:18:27.278Z,10.57
2018-08-19T00:20:55.345Z,9.03
2018-08-19T00:23:23.467Z,15.23
2018-08-19T00:25:51.625Z,10.13
2018-08-19T00:28:20.602Z,11.30
2018-08-19T00:30:48.718Z,11.57
2018-08-19T00:33:16.817Z,10.27
2018-08-19T00:35:44.946Z,11.47
2018-08-19T00:38:14.404Z,13.30
2018-08-19T00:40:43.203Z,10.90
2018-08-19T00:43:12.416Z,10.87
2018-08-19T00:45:40.792Z,12.73
2018-08-19T00:48:11.248Z,15.47
2018-08-19T00:50:40.414Z,11.23
2018-08-19T00:53:09.876Z,14.30
2018-08-19T00:55:43.892Z,14.20
2018-08-19T00:58:16.430Z,11.57
2018-08-19T01:00:44.816Z,9.93
2018-08-19T01:03:14.313Z,13.87
2018-08-19T01:05:42.699Z,11.27
2018-08-19T01:08:12.669Z,11.47
2018-08-19T01:10:41.100Z,12.53
2018-08-19T01:13:09.853Z,11.77
2018-08-19T01:15:38.175Z,15.30
2018-08-19T01:18:06.323Z,11.07
2018-08-19T01:20:34.431Z,10.93
2018-08-19T01:23:02.809Z,11.20
2018-08-19T01:25:31.230Z,10.97
2018-08-19T01:27:59.688Z,12.43
2018-08-19T01:30:28.062Z,11.60
2018-08-19T01:32:56.458Z,12.03
2018-08-19T01:35:30.338Z,10.63
2018-08-19T01:37:58.718Z,10.07
2018-08-19T01:40:27.038Z,11.67
2018-08-19T01:42:55.375Z,11.83
2018-08-19T01:45:23.719Z,13.53
2018-08-19T01:47:52.047Z,12.73
2018-08-19T01:50:20.458Z,11.43
2018-08-19T01:52:49.363Z,11.93
2018-08-19T01:55:18.226Z,11.37
2018-08-19T01:57:48.702Z,11.63
2018-08-19T02:00:17.705Z,13.17
2018-08-19T02:02:57.709Z,12.80
2018-08-19T02:05:26.332Z,12.10
2018-08-19T02:07:57.094Z,15.23
2018-08-19T02:10:26.162Z,10.03
2018-08-19T02:12:55.706Z,10.67
2018-08-19T02:15:25.189Z,12.07
2018-08-19T02:18:02.744Z,10.03
2018-08-19T02:20:41.307Z,8.13
2018-08-19T02:23:12.054Z,12.60
2018-08-19T02:25:43.078Z,6.27
2018-08-19T02:28:12.014Z,8.70
2018-08-19T02:30:49.795Z,8.73
2018-08-19T02:33:18.150Z,6.17
2018-08-19T02:35:52.700Z,7.37
2018-08-19T02:38:21.080Z,6.83
2018-08-19T02:40:52.119Z,5.70
2018-08-19T02:43:21.036Z,6.47
2018-08-19T02:45:49.387Z,6.53
2018-08-19T02:48:17.709Z,5.87
2018-08-19T02:50:46.017Z,7.70
2018-08-19T02:53:14.427Z,8.03
2018-08-19T02:55:42.752Z,4.97
2018-08-19T02:58:16.757Z,5.77
2018-08-19T03:00:45.150Z,8.30
2018-08-19T03:03:13.504Z,4.70
2018-08-19T03:05:46.078Z,4.90
2018-08-19T03:08:14.423Z,6.40
2018-08-19T03:10:42.758Z,6.40
2018-08-19T03:13:11.162Z,5.00
2018-08-19T03:15:39.482Z,6.60
2018-08-19T03:18:07.943Z,5.60
2018-08-19T03:20:36.250Z,6.97
2018-08-19T03:23:04.324Z,9.40
2018-08-19T03:25:32.472Z,5.57
2018-08-19T03:28:00.542Z,4.47
2018-08-19T03:30:28.690Z,5.20
2018-08-19T03:33:01.311Z,6.43
2018-08-19T03:35:29.394Z,6.13
2018-08-19T03:38:01.334Z,7.83
2018-08-19T03:40:29.401Z,5.83
2018-08-19T03:42:57.493Z,6.07
2018-08-19T03:45:25.597Z,5.33
2018-08-19T03:47:53.688Z,4.57
2018-08-19T03:50:22.899Z,7.90
2018-08-19T03:52:51.855Z,4.70
2018-08-19T03:55:24.280Z,9.57
2018-08-19T03:57:52.979Z,8.33
2018-08-19T04:00:21.271Z,9.73
2018-08-19T04:02:49.430Z,6.67
2018-08-19T04:05:19.665Z,6.63
2018-08-19T04:07:47.743Z,9.30
2018-08-19T04:10:15.821Z,9.80
2018-08-19T04:12:43.953Z,7.00
2018-08-19T04:15:12.080Z,4.90
2018-08-19T04:17:40.179Z,7.23
2018-08-19T04:20:08.247Z,6.57
2018-08-19T04:22:36.304Z,8.17
2018-08-19T04:25:04.468Z,7.40
2018-08-19T04:27:32.571Z,6.73
2018-08-19T04:30:01.017Z,8.50
2018-08-19T04:32:30.046Z,5.23
2018-08-19T04:34:58.627Z,5.80
2018-08-19T04:37:26.771Z,6.17
2018-08-19T04:39:54.830Z,8.97
2018-08-19T04:42:23.183Z,8.57
2018-08-19T04:44:51.138Z,5.50
2018-08-19T04:47:24.875Z,8.93
2018-08-19T04:49:53.232Z,7.80
2018-08-19T04:52:22.552Z,4.87
2018-08-19T04:54:51.489Z,7.87
2018-08-19T04:57:20.355Z,7.07
2018-08-19T04:59:48.694Z,7.27
2018-08-19T05:02:17.020Z,7.13
2018-08-19T05:04:45.250Z,7.67
2018-08-19T05:07:13.825Z,6.90
2018-08-19T05:09:42.163Z,9.23
2018-08-19T05:12:10.486Z,5.33
2018-08-19T05:14:38.838Z,6.93
2018-08-19T05:17:07.184Z,7.93
2018-08-19T05:19:35.596Z,6.77
2018-08-19T05:22:09.313Z,9.10
2018-08-19T05:24:37.656Z,6.60
2018-08-19T05:27:07.558Z,6.40
2018-08-19T05:29:35.933Z,6.33
2018-08-19T05:32:04.643Z,7.13
2018-08-19T05:34:33.960Z,7.07
2018-08-19T05:37:02.747Z,5.83
2018-08-19T05:39:31.161Z,5.13
2018-08-19T05:42:05.756Z,8.43
2018-08-19T05:44:36.107Z,10.77
2018-08-19T05:47:05.842Z,9.13
2018-08-19T05:49:35.656Z,7.47
2018-08-19T05:52:09.560Z,6.43
2018-08-19T05:54:43.369Z,5.87
2018-08-19T05:57:11.822Z,6.10
2018-08-19T05:59:40.711Z,6.87
2018-08-19T06:02:09.069Z,8.23
2018-08-19T06:04:37.486Z,5.70
2018-08-19T06:07:06.475Z,9.47
2018-08-19T06:09:35.699Z,6.37
2018-08-19T06:12:04.878Z,6.70
2018-08-19T06:14:33.647Z,5.50
2018-08-19T06:17:03.728Z,5.73
2018-08-19T06:19:33.011Z,5.53
2018-08-19T06:22:01.490Z,4.93
2018-08-19T06:24:29.970Z,7.33
2018-08-19T06:26:58.310Z,6.33
2018-08-19T06:29:43.662Z,6.77
2018-08-19T06:32:16.856Z,7.80
2018-08-19T06:34:45.368Z,6.93
2018-08-19T06:37:14.347Z,5.87
2018-08-19T06:39:42.661Z,6.23
2018-08-19T06:42:11.303Z,4.23
2018-08-19T06:44:39.623Z,4.43
2018-08-19T06:47:09.002Z,5.40
2018-08-19T06:49:41.713Z,5.10
2018-08-19T06:52:11.001Z,6.30
2018-08-19T06:54:39.427Z,5.03
2018-08-19T06:57:08.237Z,6.10
2018-08-19T06:59:37.137Z,8.17
2018-08-19T07:02:05.923Z,6.53
2018-08-19T07:04:36.999Z,9.80
2018-08-19T07:07:06.982Z,4.23
2018-08-19T07:09:35.584Z,5.37
2018-08-19T07:12:07.197Z,7.27
2018-08-19T07:14:35.584Z,6.97
2018-08-19T07:17:03.996Z,9.83
2018-08-19T07:19:32.414Z,6.67
2018-08-19T07:22:05.516Z,6.87
2018-08-19T07:24:34.947Z,5.50
2018-08-19T07:27:03.335Z,7.47
2018-08-19T07:29:32.383Z,5.30
2018-08-19T07:32:00.665Z,7.97
2018-08-19T07:34:29.085Z,9.27
2018-08-19T07:36:59.395Z,6.50
2018-08-19T07:39:28.118Z,7.07
2018-08-19T07:41:56.828Z,18.67
2018-08-19T07:44:25.310Z,8.83
2018-08-19T07:46:53.699Z,5.50
2018-08-19T07:49:22.052Z,9.03
2018-08-19T07:51:50.476Z,7.63
2018-08-19T07:54:19.358Z,5.40
2018-08-19T07:56:47.804Z,10.17
2018-08-19T07:59:17.342Z,3.60
2018-08-19T08:01:56.554Z,6.73
2018-08-19T08:04:32.056Z,4.80
2018-08-19T08:07:00.434Z,4.23
2018-08-19T08:09:28.761Z,4.87
2018-08-19T08:11:57.432Z,6.33
2018-08-19T08:14:25.799Z,4.87
2018-08-19T08:16:54.144Z,6.70
2018-08-19T08:19:23.509Z,6.47
2018-08-19T08:21:52.024Z,6.47
2018-08-19T08:24:20.342Z,4.87
2018-08-19T08:26:53.791Z,6.13
2018-08-19T08:29:22.216Z,5.73
2018-08-19T08:31:56.090Z,5.17
2018-08-19T08:34:25.786Z,5.17
2018-08-19T08:36:58.432Z,6.37
2018-08-19T08:39:26.759Z,6.17
2018-08-19T08:41:55.588Z,6.67
2018-08-19T08:44:24.171Z,6.97
2018-08-19T08:46:53.251Z,6.40
2018-08-19T08:49:21.658Z,4.90
2018-08-19T08:51:50.048Z,7.30
2018-08-19T08:54:18.616Z,9.23
2018-08-19T08:56:47.050Z,5.60
2018-08-19T08:59:15.469Z,8.67
2018-08-19T09:01:43.802Z,8.23
2018-08-19T09:04:12.228Z,8.53
2018-08-19T09:06:40.584Z,9.40
2018-08-19T09:09:08.899Z,5.90
2018-08-19T09:11:37.373Z,6.53
2018-08-19T09:14:05.952Z,7.53
2018-08-19T09:16:36.806Z,7.47
2018-08-19T09:19:08.209Z,7.17
2018-08-19T09:21:36.626Z,8.87
2018-08-19T09:24:04.936Z,7.60
2018-08-19T09:26:48.238Z,8.97
2018-08-19T09:29:16.575Z,5.50
2018-08-19T09:31:44.957Z,7.03
2018-08-19T09:34:13.332Z,6.83
2018-08-19T09:36:41.674Z,6.13
2018-08-19T09:39:10.809Z,6.43
2018-08-19T09:41:39.142Z,4.63
2018-08-19T09:44:07.711Z,7.77
2018-08-19T09:46:36.071Z,6.13
2018-08-19T09:49:04.477Z,6.67
2018-08-19T09:51:32.818Z,6.03
2018-08-19T09:54:02.292Z,5.73
2018-08-19T09:56:36.202Z,5.17
2018-08-19T09:59:05.746Z,8.10
2018-08-19T10:01:40.444Z,5.97
2018-08-19T10:04:24.461Z,6.03
2018-08-19T10:07:02.007Z,4.50
2018-08-19T10:09:30.888Z,5.90
2018-08-19T10:11:59.262Z,5.40
2018-08-19T10:14:27.568Z,6.60
2018-08-19T10:16:56.718Z,5.70
2018-08-19T10:19:25.052Z,5.90
2018-08-19T10:21:53.450Z,7.77
2018-08-19T10:24:24.069Z,5.17
2018-08-19T10:26:52.639Z,5.73
2018-08-19T10:29:20.966Z,7.40
2018-08-19T10:31:53.383Z,5.37
2018-08-19T10:34:25.159Z,7.07
2018-08-19T10:36:57.410Z,5.40
2018-08-19T10:39:25.751Z,4.23
2018-08-19T10:42:08.690Z,4.87
2018-08-19T10:44:37.006Z,4.33
2018-08-19T10:47:05.485Z,4.70
2018-08-19T10:49:34.249Z,4.03
2018-08-19T10:52:03.263Z,5.37
2018-08-19T10:54:31.707Z,4.43
2018-08-19T10:57:05.952Z,6.23
2018-08-19T10:59:34.318Z,4.67
2018-08-19T11:02:02.729Z,4.70
2018-08-19T11:04:31.058Z,4.80
2018-08-19T11:06:59.457Z,5.57
2018-08-19T11:09:27.840Z,6.37
2018-08-19T11:11:56.479Z,4.43
2018-08-19T11:14:24.926Z,4.53
2018-08-19T11:16:53.294Z,5.50
2018-08-19T11:19:22.229Z,5.63
2018-08-19T11:21:50.639Z,6.57
2018-08-19T11:24:25.708Z,6.10
2018-08-19T11:27:01.317Z,5.47
2018-08-19T11:29:30.883Z,7.63
2018-08-19T11:31:59.261Z,5.83
2018-08-19T11:34:27.632Z,7.67
2018-08-19T11:36:56.156Z,3.63
2018-08-19T11:39:28.772Z,4.27
2018-08-19T11:41:58.548Z,5.47
2018-08-19T11:44:26.919Z,9.30
2018-08-19T11:46:55.360Z,7.73
2018-08-19T11:49:23.710Z,3.30
2018-08-19T11:51:56.362Z,4.93
2018-08-19T11:54:25.450Z,5.30
2018-08-19T11:57:05.243Z,4.90
2018-08-19T11:59:39.180Z,3.53
2018-08-19T12:02:09.896Z,4.07
2018-08-19T12:04:39.035Z,7.07
2018-08-19T12:07:07.413Z,3.87
2018-08-19T12:09:35.787Z,5.60
2018-08-19T12:12:05.430Z,4.90
2018-08-19T12:14:35.367Z,4.63
2018-08-19T12:17:07.545Z,3.80
2018-08-19T12:19:41.522Z,6.77
2018-08-19T12:22:10.089Z,5.60
2018-08-19T12:24:40.678Z,3.30
2018-08-19T12:27:10.195Z,5.40
2018-08-19T12:29:39.964Z,5.30
2018-08-19T12:32:15.007Z,5.50
2018-08-19T12:34:52.894Z,3.47
2018-08-19T12:37:22.305Z,4.53
2018-08-19T12:39:51.186Z,4.10
2018-08-19T12:42:19.540Z,4.70
2018-08-19T12:44:52.310Z,3.43
2018-08-19T12:47:23.102Z,2.53
2018-08-19T12:49:52.948Z,4.23
2018-08-19T12:52:23.634Z,3.93
2018-08-19T12:54:56.999Z,6.27
2018-08-19T12:57:25.822Z,4.90
2018-08-19T12:59:56.872Z,4.17
2018-08-19T13:02:26.354Z,4.17
2018-08-19T13:04:54.777Z,3.63
2018-08-19T13:07:23.158Z,3.73
2018-08-19T13:09:51.508Z,3.80
2018-08-19T13:12:19.889Z,5.87
2018-08-19T13:14:48.222Z,2.60
2018-08-19T13:17:16.786Z,4.03
2018-08-19T13:19:59.271Z,5.80
2018-08-19T13:22:28.792Z,3.40
2018-08-19T13:24:57.277Z,7.57
2018-08-19T13:27:25.592Z,3.93
2018-08-19T13:29:54.003Z,4.57
2018-08-19T13:32:22.367Z,3.00
2018-08-19T13:34:50.745Z,3.80
2018-08-19T13:37:20.567Z,3.77
2018-08-19T13:39:48.972Z,4.60
2018-08-19T13:42:17.344Z,3.00
2018-08-19T13:44:45.679Z,3.93
2018-08-19T13:47:14.208Z,3.67
2018-08-19T13:49:42.540Z,4.27
2018-08-19T13:52:10.963Z,5.93
2018-08-19T13:54:50.889Z,6.10
2018-08-19T13:57:19.807Z,4.20
2018-08-19T13:59:48.136Z,5.23
2018-08-19T14:02:16.459Z,4.67
2018-08-19T14:04:44.835Z,4.10
2018-08-19T14:07:13.232Z,6.30
2018-08-19T14:09:41.574Z,4.87
2018-08-19T14:12:09.940Z,4.30
2018-08-19T14:14:38.291Z,4.13
2018-08-19T14:17:06.697Z,3.43
2018-08-19T14:19:35.136Z,6.23
2018-08-19T14:22:03.604Z,4.60
2018-08-19T14:24:31.917Z,5.73
2018-08-19T14:27:01.152Z,5.00
2018-08-19T14:29:29.497Z,3.83
2018-08-19T14:31:57.800Z,4.43
2018-08-19T14:34:26.262Z,4.83
2018-08-19T14:36:54.680Z,7.60
2018-08-19T14:39:23.047Z,3.73
2018-08-19T14:41:51.465Z,4.27
2018-08-19T14:44:19.861Z,5.43
2018-08-19T14:46:49.924Z,11.67
2018-08-19T14:49:18.345Z,4.17
2018-08-19T14:51:55.460Z,5.33
2018-08-19T14:54:24.408Z,4.93
2018-08-19T14:56:52.751Z,5.40
2018-08-19T14:59:21.112Z,5.13
2018-08-19T15:01:49.580Z,4.00
2018-08-19T15:04:18.425Z,4.10
2018-08-19T15:06:47.670Z,6.97
2018-08-19T15:09:35.327Z,5.20
2018-08-19T15:12:14.960Z,4.30
2018-08-19T15:14:43.840Z,5.40
2018-08-19T15:17:12.716Z,3.70
2018-08-19T15:19:44.979Z,5.47
2018-08-19T15:22:13.333Z,4.83
2018-08-19T15:24:41.763Z,4.30
2018-08-19T15:27:10.200Z,7.63
2018-08-19T15:29:40.614Z,4.33
2018-08-19T15:32:09.192Z,4.63
2018-08-19T15:34:37.592Z,5.77
2018-08-19T15:37:06.086Z,5.50
2018-08-19T15:39:34.667Z,7.00
2018-08-19T15:42:03.128Z,4.80
2018-08-19T15:44:31.486Z,4.30
2018-08-19T15:47:00.054Z,4.03
2018-08-19T15:49:28.459Z,4.17
2018-08-19T15:51:57.347Z,8.00
2018-08-19T15:54:25.949Z,5.00
2018-08-19T15:56:58.073Z,6.60
2018-08-19T15:59:26.385Z,5.10
2018-08-19T16:01:54.768Z,6.70
2018-08-19T16:04:24.513Z,8.10
2018-08-19T16:06:53.979Z,7.60
2018-08-19T16:09:23.725Z,6.50
2018-08-19T16:11:52.685Z,5.20
2018-08-19T16:14:23.831Z,5.63
2018-08-19T16:16:52.903Z,7.30
2018-08-19T16:19:22.069Z,4.57
2018-08-19T16:21:52.601Z,6.87
2018-08-19T16:24:21.117Z,5.67
2018-08-19T16:26:49.537Z,4.27
2018-08-19T16:29:18.075Z,5.13
2018-08-19T16:31:46.661Z,4.70
2018-08-19T16:34:15.199Z,6.43
2018-08-19T16:36:43.657Z,6.57
2018-08-19T16:39:14.753Z,4.10
2018-08-19T16:41:43.191Z,5.60
2018-08-19T16:44:11.704Z,4.53
2018-08-19T16:46:40.590Z,5.73
2018-08-19T16:49:09.007Z,4.53
2018-08-19T16:51:37.377Z,5.87
2018-08-19T16:54:06.008Z,4.47
2018-08-19T16:56:34.425Z,6.47
2018-08-19T16:59:02.894Z,6.17
2018-08-19T17:01:31.452Z,5.77
2018-08-19T17:03:59.980Z,5.07
2018-08-19T17:06:28.352Z,4.20
2018-08-19T17:08:56.967Z,5.57
2018-08-19T17:11:25.660Z,5.67
2018-08-19T17:13:54.123Z,3.77
2018-08-19T17:16:22.643Z,6.40
2018-08-19T17:18:51.069Z,5.17
2018-08-19T17:21:19.712Z,4.43
2018-08-19T17:23:49.993Z,9.40
2018-08-19T17:26:24.407Z,7.60
2018-08-19T17:28:53.083Z,4.80
2018-08-19T17:31:21.608Z,6.63
2018-08-19T17:33:50.064Z,7.07
2018-08-19T17:36:26.943Z,4.57
2018-08-19T17:38:55.385Z,6.10
2018-08-19T17:41:23.697Z,7.47
2018-08-19T17:43:52.600Z,6.97
2018-08-19T17:46:21.487Z,6.80
2018-08-19T17:48:49.981Z,5.63
2018-08-19T17:51:29.212Z,6.03
2018-08-19T17:53:57.548Z,5.80
2018-08-19T17:56:25.893Z,7.97
2018-08-19T17:58:55.158Z,5.93
2018-08-19T18:01:23.790Z,7.43
2018-08-19T18:03:52.208Z,7.87
2018-08-19T18:06:20.579Z,7.33
2018-08-19T18:08:49.797Z,5.10
2018-08-19T18:11:21.517Z,5.87
2018-08-19T18:13:50.315Z,7.57
2018-08-19T18:16:18.704Z,6.43
2018-08-19T18:18:47.646Z,6.97
2018-08-19T18:21:16.115Z,6.57
2018-08-19T18:23:47.255Z,9.00
2018-08-19T18:26:15.820Z,6.20
2018-08-19T18:28:45.654Z,7.27
2018-08-19T18:31:14.226Z,7.47
2018-08-19T18:33:48.824Z,6.97
2018-08-19T18:36:18.252Z,7.23
2018-08-19T18:38:46.594Z,8.80
2018-08-19T18:41:21.816Z,10.83
2018-08-19T18:43:51.784Z,6.67
2018-08-19T18:46:20.553Z,9.30
2018-08-19T18:49:00.332Z,8.43
2018-08-19T18:51:29.352Z,7.87
2018-08-19T18:53:57.731Z,12.67
2018-08-19T18:56:27.209Z,7.60
2018-08-19T18:58:55.713Z,6.77
2018-08-19T19:01:24.180Z,7.13
2018-08-19T19:03:52.610Z,8.40
2018-08-19T19:06:21.107Z,7.43
2018-08-19T19:08:49.500Z,10.17
2018-08-19T19:11:21.178Z,7.00
2018-08-19T19:13:49.752Z,8.90
2018-08-19T19:16:30.003Z,9.70
2018-08-19T19:18:58.367Z,5.87
2018-08-19T19:21:26.681Z,9.60
2018-08-19T19:23:55.156Z,8.60
2018-08-19T19:26:30.468Z,11.50
2018-08-19T19:28:58.934Z,8.53
2018-08-19T19:31:27.343Z,8.73
2018-08-19T19:34:02.793Z,9.20
2018-08-19T19:36:31.184Z,11.13
2018-08-19T19:38:59.762Z,7.13
2018-08-19T19:41:30.995Z,7.43
2018-08-19T19:44:01.635Z,9.80
2018-08-19T19:46:29.966Z,10.20
2018-08-19T19:48:58.273Z,10.53
2018-08-19T19:51:26.634Z,10.87
2018-08-19T19:53:54.989Z,8.83
2018-08-19T19:56:23.331Z,7.77
2018-08-19T19:58:51.719Z,9.47
2018-08-19T20:01:20.050Z,8.90
2018-08-19T20:03:55.424Z,6.57
2018-08-19T20:06:25.047Z,11.00
2018-08-19T20:08:53.552Z,11.10
2018-08-19T20:11:29.075Z,10.10
2018-08-19T20:14:00.560Z,9.57
2018-08-19T20:16:28.902Z,9.20
2018-08-19T20:18:57.269Z,6.57
2018-08-19T20:21:26.976Z,8.87
2018-08-19T20:23:56.595Z,8.20
2018-08-19T20:26:25.738Z,9.47
2018-08-19T20:28:55.743Z,10.20
2018-08-19T20:31:24.159Z,8.00
2018-08-19T20:33:52.620Z,10.03
2018-08-19T20:36:22.481Z,9.43
2018-08-19T20:38:50.833Z,13.07
2018-08-19T20:41:19.331Z,6.77
2018-08-19T20:43:47.928Z,10.57
2018-08-19T20:46:16.343Z,9.37
2018-08-19T20:48:46.501Z,7.10
2018-08-19T20:51:15.032Z,7.20
2018-08-19T20:53:43.383Z,8.70
2018-08-19T20:56:11.702Z,8.80
2018-08-19T20:58:40.048Z,8.40
2018-08-19T21:01:14.548Z,6.20
2018-08-19T21:03:43.380Z,6.67
2018-08-19T21:06:11.805Z,11.77
2018-08-19T21:08:40.232Z,8.43
2018-08-19T21:11:09.331Z,7.57
2018-08-19T21:13:37.655Z,7.50
2018-08-19T21:16:06.103Z,11.43
2018-08-19T21:18:34.521Z,9.20
2018-08-19T21:21:02.921Z,9.17
2018-08-19T21:23:31.648Z,8.23
2018-08-19T21:26:01.348Z,9.50
2018-08-19T21:28:29.734Z,8.77
2018-08-19T21:30:58.099Z,11.70
2018-08-19T21:33:26.467Z,8.80
2018-08-19T21:35:56.040Z,9.37
2018-08-19T21:38:24.366Z,9.90
2018-08-19T21:40:55.373Z,9.93
2018-08-19T21:43:26.479Z,9.50
2018-08-19T21:45:54.938Z,8.73
2018-08-19T21:48:23.259Z,8.67
2018-08-19T21:50:51.629Z,8.83
2018-08-19T21:53:21.116Z,11.20
2018-08-19T21:55:51.732Z,9.30
2018-08-19T21:58:20.126Z,15.30
2018-08-19T22:00:56.874Z,12.97
2018-08-19T22:03:31.710Z,8.83
2018-08-19T22:06:00.156Z,11.03
2018-08-19T22:08:28.458Z,9.03
2018-08-19T22:10:56.791Z,10.57
2018-08-19T22:13:25.169Z,11.87
2018-08-19T22:15:53.548Z,10.90
2018-08-19T22:18:23.568Z,12.57
2018-08-19T22:21:09.923Z,9.33
2018-08-19T22:23:45.087Z,10.77
2018-08-19T22:26:14.550Z,8.67
2018-08-19T22:28:43.134Z,9.07
2018-08-19T22:38:30.760Z,11.13
2018-08-19T22:40:59.135Z,10.90
2018-08-19T22:43:27.522Z,10.17
2018-08-19T22:45:55.863Z,13.03
2018-08-19T22:48:36.743Z,12.27
2018-08-19T22:51:05.925Z,12.53
2018-08-19T22:53:34.217Z,15.70
2018-08-19T22:56:02.825Z,10.93
2018-08-19T22:58:31.165Z,11.27
2018-08-19T23:00:59.664Z,13.83
2018-08-19T23:03:28.217Z,11.40
2018-08-19T23:05:56.715Z,10.17
2018-08-19T23:08:28.091Z,12.00
2018-08-19T23:10:58.127Z,13.37
2018-08-19T23:13:38.158Z,9.70
2018-08-19T23:16:08.128Z,12.00
2018-08-19T23:18:36.829Z,11.10
2018-08-19T23:21:05.357Z,9.40
2018-08-19T23:23:33.776Z,11.50
2018-08-19T23:26:02.510Z,10.70
2018-08-19T23:28:30.892Z,9.07
2018-08-19T23:30:59.273Z,10.10
2018-08-19T23:33:27.633Z,9.77
2018-08-19T23:35:55.972Z,11.07
2018-08-19T23:38:24.323Z,11.83
2018-08-19T23:40:52.637Z,9.33
2018-08-19T23:43:21.008Z,11.90
2018-08-19T23:45:49.363Z,13.97
2018-08-19T23:48:17.771Z,8.67
2018-08-19T23:50:46.053Z,10.67
2018-08-19T23:53:14.428Z,10.70
2018-08-19T23:55:42.798Z,11.60
2018-08-19T23:58:11.208Z,12.07
